sensor_id;sensor_type;location;lat;lon;timestamp;P1;durP1;ratioP1;P2;durP2;ratioP2
52590;SDS011;38483;42.620;25.394;2023-06-14T00:00:30;5.77;;;5.17;;
52590;SDS011;38483;42.620;25.394;2023-06-14T00:03:53;8.23;;;5.30;;
52590;SDS011;38483;42.620;25.394;2023-06-14T00:07:15;5.57;;;5.07;;
52590;SDS011;38483;42.620;25.394;2023-06-14T00:10:36;8.83;;;5.37;;
52590;SDS011;38483;42.620;25.394;2023-06-14T00:13:56;6.60;;;5.80;;
52590;SDS011;38483;42.620;25.394;2023-06-14T00:17:17;8.73;;;6.17;;
52590;SDS011;38483;42.620;25.394;2023-06-14T00:20:41;8.93;;;6.33;;
52590;SDS011;38483;42.620;25.394;2023-06-14T00:24:01;7.20;;;6.03;;
52590;SDS011;38483;42.620;25.394;2023-06-14T00:27:22;10.40;;;6.97;;
52590;SDS011;38483;42.620;25.394;2023-06-14T00:30:43;8.20;;;6.60;;
52590;SDS011;38483;42.620;25.394;2023-06-14T00:34:03;7.53;;;6.20;;
52590;SDS011;38483;42.620;25.394;2023-06-14T00:37:24;6.80;;;5.93;;
52590;SDS011;38483;42.620;25.394;2023-06-14T00:40:45;9.77;;;5.50;;
52590;SDS011;38483;42.620;25.394;2023-06-14T00:44:05;6.73;;;5.60;;
52590;SDS011;38483;42.620;25.394;2023-06-14T00:47:29;8.87;;;5.17;;
52590;SDS011;38483;42.620;25.394;2023-06-14T00:50:49;7.60;;;5.30;;
52590;SDS011;38483;42.620;25.394;2023-06-14T00:54:10;6.57;;;5.73;;
52590;SDS011;38483;42.620;25.394;2023-06-14T00:57:31;6.83;;;6.17;;
52590;SDS011;38483;42.620;25.394;2023-06-14T01:00:53;8.07;;;6.07;;
52590;SDS011;38483;42.620;25.394;2023-06-14T01:04:13;7.43;;;6.07;;
52590;SDS011;38483;42.620;25.394;2023-06-14T01:07:41;8.23;;;5.63;;
52590;SDS011;38483;42.620;25.394;2023-06-14T01:11:10;7.70;;;5.80;;
52590;SDS011;38483;42.620;25.394;2023-06-14T01:14:28;7.77;;;5.60;;
52590;SDS011;38483;42.620;25.394;2023-06-14T01:17:50;6.77;;;5.57;;
52590;SDS011;38483;42.620;25.394;2023-06-14T01:21:19;9.20;;;6.50;;
52590;SDS011;38483;42.620;25.394;2023-06-14T01:24:31;8.07;;;5.67;;
52590;SDS011;38483;42.620;25.394;2023-06-14T01:27:53;6.83;;;5.60;;
52590;SDS011;38483;42.620;25.394;2023-06-14T01:31:16;6.73;;;6.03;;
52590;SDS011;38483;42.620;25.394;2023-06-14T01:34:35;8.97;;;6.60;;
52590;SDS011;38483;42.620;25.394;2023-06-14T01:37:56;8.63;;;6.90;;
52590;SDS011;38483;42.620;25.394;2023-06-14T01:41:17;8.13;;;7.33;;
52590;SDS011;38483;42.620;25.394;2023-06-14T01:44:38;10.53;;;8.57;;
52590;SDS011;38483;42.620;25.394;2023-06-14T01:47:59;9.50;;;7.60;;
52590;SDS011;38483;42.620;25.394;2023-06-14T01:51:19;9.57;;;7.63;;
52590;SDS011;38483;42.620;25.394;2023-06-14T01:54:42;12.13;;;7.77;;
52590;SDS011;38483;42.620;25.394;2023-06-14T01:58:07;10.03;;;7.93;;
52590;SDS011;38483;42.620;25.394;2023-06-14T02:01:28;8.77;;;7.50;;
52590;SDS011;38483;42.620;25.394;2023-06-14T02:04:49;8.17;;;7.23;;
52590;SDS011;38483;42.620;25.394;2023-06-14T02:08:10;13.77;;;7.80;;
52590;SDS011;38483;42.620;25.394;2023-06-14T02:11:31;10.23;;;7.13;;
52590;SDS011;38483;42.620;25.394;2023-06-14T02:14:52;9.70;;;8.23;;
52590;SDS011;38483;42.620;25.394;2023-06-14T02:18:16;11.07;;;7.07;;
52590;SDS011;38483;42.620;25.394;2023-06-14T02:21:57;10.70;;;7.17;;
52590;SDS011;38483;42.620;25.394;2023-06-14T02:25:17;8.67;;;7.43;;
52590;SDS011;38483;42.620;25.394;2023-06-14T02:28:38;10.70;;;7.50;;
52590;SDS011;38483;42.620;25.394;2023-06-14T02:32:02;8.73;;;7.23;;
52590;SDS011;38483;42.620;25.394;2023-06-14T02:35:23;12.20;;;7.63;;
52590;SDS011;38483;42.620;25.394;2023-06-14T02:38:44;9.90;;;7.27;;
52590;SDS011;38483;42.620;25.394;2023-06-14T02:42:04;9.80;;;6.17;;
52590;SDS011;38483;42.620;25.394;2023-06-14T02:45:25;7.33;;;6.17;;
52590;SDS011;38483;42.620;25.394;2023-06-14T02:48:49;9.60;;;6.47;;
52590;SDS011;38483;42.620;25.394;2023-06-14T02:52:10;9.60;;;6.47;;
52590;SDS011;38483;42.620;25.394;2023-06-14T02:55:30;11.77;;;7.77;;
52590;SDS011;38483;42.620;25.394;2023-06-14T02:58:52;8.60;;;7.43;;
52590;SDS011;38483;42.620;25.394;2023-06-14T03:02:13;9.57;;;6.50;;
52590;SDS011;38483;42.620;25.394;2023-06-14T03:05:35;8.13;;;5.90;;
52590;SDS011;38483;42.620;25.394;2023-06-14T03:08:58;8.70;;;6.77;;
52590;SDS011;38483;42.620;25.394;2023-06-14T03:12:19;8.27;;;7.20;;
52590;SDS011;38483;42.620;25.394;2023-06-14T03:15:42;8.50;;;6.60;;
52590;SDS011;38483;42.620;25.394;2023-06-14T03:19:06;8.27;;;5.67;;
52590;SDS011;38483;42.620;25.394;2023-06-14T03:22:30;10.77;;;6.60;;
52590;SDS011;38483;42.620;25.394;2023-06-14T03:25:50;14.43;;;7.27;;
52590;SDS011;38483;42.620;25.394;2023-06-14T03:29:12;8.63;;;7.23;;
52590;SDS011;38483;42.620;25.394;2023-06-14T03:32:33;7.70;;;6.60;;
52590;SDS011;38483;42.620;25.394;2023-06-14T03:35:54;10.63;;;6.87;;
52590;SDS011;38483;42.620;25.394;2023-06-14T03:39:15;7.50;;;6.17;;
52590;SDS011;38483;42.620;25.394;2023-06-14T03:42:40;10.43;;;6.73;;
52590;SDS011;38483;42.620;25.394;2023-06-14T03:46:01;6.80;;;5.57;;
52590;SDS011;38483;42.620;25.394;2023-06-14T03:49:23;8.33;;;5.77;;
52590;SDS011;38483;42.620;25.394;2023-06-14T03:52:44;7.57;;;5.40;;
52590;SDS011;38483;42.620;25.394;2023-06-14T03:56:05;7.33;;;6.20;;
52590;SDS011;38483;42.620;25.394;2023-06-14T03:59:26;6.10;;;5.43;;
52590;SDS011;38483;42.620;25.394;2023-06-14T04:02:47;8.83;;;6.33;;
52590;SDS011;38483;42.620;25.394;2023-06-14T04:06:10;9.60;;;5.80;;
52590;SDS011;38483;42.620;25.394;2023-06-14T04:09:32;8.40;;;6.17;;
52590;SDS011;38483;42.620;25.394;2023-06-14T04:12:53;12.40;;;5.87;;
52590;SDS011;38483;42.620;25.394;2023-06-14T04:16:16;10.37;;;5.53;;
52590;SDS011;38483;42.620;25.394;2023-06-14T04:19:38;9.67;;;6.33;;
52590;SDS011;38483;42.620;25.394;2023-06-14T04:23:10;6.20;;;4.90;;
52590;SDS011;38483;42.620;25.394;2023-06-14T04:26:22;7.97;;;5.23;;
52590;SDS011;38483;42.620;25.394;2023-06-14T04:29:43;11.43;;;6.57;;
52590;SDS011;38483;42.620;25.394;2023-06-14T04:33:07;5.90;;;4.90;;
52590;SDS011;38483;42.620;25.394;2023-06-14T04:36:28;6.43;;;4.50;;
52590;SDS011;38483;42.620;25.394;2023-06-14T04:39:50;12.27;;;6.13;;
52590;SDS011;38483;42.620;25.394;2023-06-14T04:43:14;7.50;;;4.87;;
52590;SDS011;38483;42.620;25.394;2023-06-14T04:46:39;6.80;;;4.83;;
52590;SDS011;38483;42.620;25.394;2023-06-14T04:50:01;6.77;;;5.43;;
52590;SDS011;38483;42.620;25.394;2023-06-14T04:53:23;8.30;;;6.27;;
52590;SDS011;38483;42.620;25.394;2023-06-14T04:56:46;10.40;;;5.87;;
52590;SDS011;38483;42.620;25.394;2023-06-14T05:00:08;8.10;;;4.70;;
52590;SDS011;38483;42.620;25.394;2023-06-14T05:03:29;5.90;;;4.57;;
52590;SDS011;38483;42.620;25.394;2023-06-14T05:06:49;5.63;;;4.67;;
52590;SDS011;38483;42.620;25.394;2023-06-14T05:10:11;8.40;;;4.80;;
52590;SDS011;38483;42.620;25.394;2023-06-14T05:13:31;7.53;;;4.70;;
52590;SDS011;38483;42.620;25.394;2023-06-14T05:16:52;6.53;;;3.70;;
52590;SDS011;38483;42.620;25.394;2023-06-14T05:20:13;6.87;;;4.57;;
52590;SDS011;38483;42.620;25.394;2023-06-14T05:23:34;4.90;;;4.00;;
52590;SDS011;38483;42.620;25.394;2023-06-14T05:26:55;6.33;;;4.13;;
52590;SDS011;38483;42.620;25.394;2023-06-14T05:30:17;6.67;;;4.27;;
52590;SDS011;38483;42.620;25.394;2023-06-14T05:33:38;5.53;;;4.50;;
52590;SDS011;38483;42.620;25.394;2023-06-14T05:36:59;7.93;;;4.33;;
52590;SDS011;38483;42.620;25.394;2023-06-14T05:40:20;4.80;;;3.90;;
52590;SDS011;38483;42.620;25.394;2023-06-14T05:43:40;6.97;;;4.97;;
52590;SDS011;38483;42.620;25.394;2023-06-14T05:47:01;7.43;;;5.20;;
52590;SDS011;38483;42.620;25.394;2023-06-14T05:50:22;6.63;;;5.07;;
52590;SDS011;38483;42.620;25.394;2023-06-14T05:53:43;5.13;;;4.20;;
52590;SDS011;38483;42.620;25.394;2023-06-14T05:57:03;8.77;;;4.43;;
52590;SDS011;38483;42.620;25.394;2023-06-14T06:00:24;5.07;;;4.40;;
52590;SDS011;38483;42.620;25.394;2023-06-14T06:03:45;5.80;;;4.23;;
52590;SDS011;38483;42.620;25.394;2023-06-14T06:07:06;8.93;;;4.87;;
52590;SDS011;38483;42.620;25.394;2023-06-14T06:10:27;8.17;;;4.50;;
52590;SDS011;38483;42.620;25.394;2023-06-14T06:13:48;6.10;;;4.80;;
52590;SDS011;38483;42.620;25.394;2023-06-14T06:17:08;7.93;;;4.17;;
52590;SDS011;38483;42.620;25.394;2023-06-14T06:20:29;6.50;;;4.40;;
52590;SDS011;38483;42.620;25.394;2023-06-14T06:23:50;7.13;;;4.60;;
52590;SDS011;38483;42.620;25.394;2023-06-14T06:27:10;6.73;;;4.37;;
52590;SDS011;38483;42.620;25.394;2023-06-14T06:30:31;8.87;;;4.77;;
52590;SDS011;38483;42.620;25.394;2023-06-14T06:33:53;4.87;;;3.40;;
52590;SDS011;38483;42.620;25.394;2023-06-14T06:37:13;5.47;;;4.07;;
52590;SDS011;38483;42.620;25.394;2023-06-14T06:40:33;5.67;;;3.90;;
52590;SDS011;38483;42.620;25.394;2023-06-14T06:43:54;12.13;;;5.23;;
52590;SDS011;38483;42.620;25.394;2023-06-14T06:47:15;10.97;;;4.33;;
52590;SDS011;38483;42.620;25.394;2023-06-14T06:50:36;8.77;;;3.90;;
52590;SDS011;38483;42.620;25.394;2023-06-14T06:53:57;4.97;;;3.30;;
52590;SDS011;38483;42.620;25.394;2023-06-14T06:57:17;3.80;;;3.40;;
52590;SDS011;38483;42.620;25.394;2023-06-14T07:00:39;8.63;;;4.40;;
52590;SDS011;38483;42.620;25.394;2023-06-14T07:04:00;6.07;;;4.00;;
52590;SDS011;38483;42.620;25.394;2023-06-14T07:07:21;5.63;;;3.57;;
52590;SDS011;38483;42.620;25.394;2023-06-14T07:10:42;9.47;;;3.90;;
52590;SDS011;38483;42.620;25.394;2023-06-14T07:14:02;8.07;;;5.60;;
52590;SDS011;38483;42.620;25.394;2023-06-14T07:17:23;5.93;;;4.17;;
52590;SDS011;38483;42.620;25.394;2023-06-14T07:20:44;9.20;;;3.87;;
52590;SDS011;38483;42.620;25.394;2023-06-14T07:24:07;9.60;;;5.20;;
52590;SDS011;38483;42.620;25.394;2023-06-14T07:27:29;6.37;;;4.90;;
52590;SDS011;38483;42.620;25.394;2023-06-14T07:30:50;4.67;;;3.90;;
52590;SDS011;38483;42.620;25.394;2023-06-14T07:34:10;10.37;;;3.80;;
52590;SDS011;38483;42.620;25.394;2023-06-14T07:37:31;3.83;;;3.43;;
52590;SDS011;38483;42.620;25.394;2023-06-14T07:40:52;5.57;;;3.30;;
52590;SDS011;38483;42.620;25.394;2023-06-14T07:44:13;5.40;;;3.83;;
52590;SDS011;38483;42.620;25.394;2023-06-14T07:47:34;8.00;;;4.33;;
52590;SDS011;38483;42.620;25.394;2023-06-14T07:50:55;4.50;;;4.00;;
52590;SDS011;38483;42.620;25.394;2023-06-14T07:53:23;7.93;;;5.20;;
52590;SDS011;38483;42.620;25.394;2023-06-14T07:55:50;4.43;;;3.87;;
52590;SDS011;38483;42.620;25.394;2023-06-14T07:58:19;10.97;;;4.83;;
52590;SDS011;38483;42.620;25.394;2023-06-14T08:00:47;11.33;;;5.40;;
52590;SDS011;38483;42.620;25.394;2023-06-14T08:03:14;8.00;;;4.50;;
52590;SDS011;38483;42.620;25.394;2023-06-14T08:05:42;7.93;;;4.13;;
52590;SDS011;38483;42.620;25.394;2023-06-14T08:08:09;7.27;;;4.80;;
52590;SDS011;38483;42.620;25.394;2023-06-14T08:10:36;4.67;;;4.00;;
52590;SDS011;38483;42.620;25.394;2023-06-14T08:13:03;6.57;;;4.77;;
52590;SDS011;38483;42.620;25.394;2023-06-14T08:15:31;7.50;;;5.30;;
52590;SDS011;38483;42.620;25.394;2023-06-14T08:17:58;6.87;;;5.60;;
52590;SDS011;38483;42.620;25.394;2023-06-14T08:20:27;7.40;;;4.77;;
52590;SDS011;38483;42.620;25.394;2023-06-14T08:22:54;5.10;;;4.07;;
52590;SDS011;38483;42.620;25.394;2023-06-14T08:25:23;5.80;;;3.73;;
52590;SDS011;38483;42.620;25.394;2023-06-14T08:28:44;5.47;;;4.07;;
52590;SDS011;38483;42.620;25.394;2023-06-14T08:31:12;8.40;;;3.77;;
52590;SDS011;38483;42.620;25.394;2023-06-14T08:34:32;5.50;;;4.20;;
52590;SDS011;38483;42.620;25.394;2023-06-14T08:37:53;6.77;;;4.40;;
52590;SDS011;38483;42.620;25.394;2023-06-14T08:41:14;7.00;;;4.07;;
52590;SDS011;38483;42.620;25.394;2023-06-14T08:44:35;6.23;;;4.07;;
52590;SDS011;38483;42.620;25.394;2023-06-14T08:47:55;4.53;;;3.77;;
52590;SDS011;38483;42.620;25.394;2023-06-14T08:51:18;6.37;;;4.60;;
52590;SDS011;38483;42.620;25.394;2023-06-14T08:53:46;7.13;;;5.33;;
52590;SDS011;38483;42.620;25.394;2023-06-14T08:56:25;4.97;;;4.10;;
52590;SDS011;38483;42.620;25.394;2023-06-14T08:58:55;9.73;;;6.00;;
52590;SDS011;38483;42.620;25.394;2023-06-14T09:01:23;5.27;;;4.30;;
52590;SDS011;38483;42.620;25.394;2023-06-14T09:03:51;9.27;;;4.87;;
52590;SDS011;38483;42.620;25.394;2023-06-14T09:06:19;7.63;;;5.10;;
52590;SDS011;38483;42.620;25.394;2023-06-14T09:08:49;6.17;;;4.70;;
52590;SDS011;38483;42.620;25.394;2023-06-14T09:11:18;9.30;;;4.90;;
52590;SDS011;38483;42.620;25.394;2023-06-14T09:13:46;5.23;;;4.40;;
52590;SDS011;38483;42.620;25.394;2023-06-14T09:16:13;7.90;;;4.77;;
52590;SDS011;38483;42.620;25.394;2023-06-14T09:18:42;7.67;;;4.87;;
52590;SDS011;38483;42.620;25.394;2023-06-14T09:21:15;6.00;;;4.90;;
52590;SDS011;38483;42.620;25.394;2023-06-14T09:23:45;5.40;;;4.00;;
52590;SDS011;38483;42.620;25.394;2023-06-14T09:28:46;7.77;;;5.67;;
52590;SDS011;38483;42.620;25.394;2023-06-14T09:31:16;9.43;;;4.57;;
52590;SDS011;38483;42.620;25.394;2023-06-14T09:33:45;10.03;;;5.40;;
52590;SDS011;38483;42.620;25.394;2023-06-14T09:36:23;7.03;;;5.27;;
52590;SDS011;38483;42.620;25.394;2023-06-14T09:38:52;7.87;;;5.37;;
52590;SDS011;38483;42.620;25.394;2023-06-14T09:41:35;12.00;;;6.40;;
52590;SDS011;38483;42.620;25.394;2023-06-14T09:44:04;5.90;;;4.97;;
52590;SDS011;38483;42.620;25.394;2023-06-14T09:46:37;6.73;;;4.83;;
52590;SDS011;38483;42.620;25.394;2023-06-14T09:49:05;5.60;;;4.67;;
52590;SDS011;38483;42.620;25.394;2023-06-14T09:51:33;7.37;;;5.00;;
52590;SDS011;38483;42.620;25.394;2023-06-14T09:54:03;8.70;;;4.97;;
52590;SDS011;38483;42.620;25.394;2023-06-14T09:56:34;8.37;;;4.57;;
52590;SDS011;38483;42.620;25.394;2023-06-14T09:59:06;6.87;;;4.80;;
52590;SDS011;38483;42.620;25.394;2023-06-14T10:01:40;7.20;;;4.87;;
52590;SDS011;38483;42.620;25.394;2023-06-14T10:04:09;5.43;;;4.53;;
52590;SDS011;38483;42.620;25.394;2023-06-14T10:06:41;7.80;;;5.57;;
52590;SDS011;38483;42.620;25.394;2023-06-14T10:09:12;7.30;;;5.27;;
52590;SDS011;38483;42.620;25.394;2023-06-14T10:11:40;6.27;;;5.00;;
52590;SDS011;38483;42.620;25.394;2023-06-14T10:14:11;5.80;;;4.90;;
52590;SDS011;38483;42.620;25.394;2023-06-14T10:19:29;11.57;;;6.53;;
52590;SDS011;38483;42.620;25.394;2023-06-14T10:22:21;5.47;;;4.57;;
52590;SDS011;38483;42.620;25.394;2023-06-14T10:24:52;6.40;;;5.00;;
52590;SDS011;38483;42.620;25.394;2023-06-14T10:27:19;7.17;;;5.03;;
52590;SDS011;38483;42.620;25.394;2023-06-14T10:32:21;6.07;;;4.73;;
52590;SDS011;38483;42.620;25.394;2023-06-14T10:34:53;10.43;;;6.23;;
52590;SDS011;38483;42.620;25.394;2023-06-14T10:37:22;7.30;;;5.23;;
52590;SDS011;38483;42.620;25.394;2023-06-14T10:39:51;8.33;;;5.73;;
52590;SDS011;38483;42.620;25.394;2023-06-14T10:42:18;8.17;;;6.03;;
52590;SDS011;38483;42.620;25.394;2023-06-14T10:44:55;7.07;;;5.80;;
52590;SDS011;38483;42.620;25.394;2023-06-14T10:47:32;7.17;;;5.97;;
52590;SDS011;38483;42.620;25.394;2023-06-14T10:50:06;5.80;;;4.60;;
52590;SDS011;38483;42.620;25.394;2023-06-14T10:52:38;6.37;;;5.17;;
52590;SDS011;38483;42.620;25.394;2023-06-14T10:55:16;5.80;;;4.50;;
52590;SDS011;38483;42.620;25.394;2023-06-14T10:57:57;6.07;;;4.40;;
52590;SDS011;38483;42.620;25.394;2023-06-14T11:00:27;6.53;;;4.77;;
52590;SDS011;38483;42.620;25.394;2023-06-14T11:05:41;5.97;;;5.23;;
52590;SDS011;38483;42.620;25.394;2023-06-14T11:11:05;8.03;;;5.17;;
52590;SDS011;38483;42.620;25.394;2023-06-14T11:13:34;5.20;;;4.70;;
52590;SDS011;38483;42.620;25.394;2023-06-14T11:16:12;7.07;;;5.30;;
52590;SDS011;38483;42.620;25.394;2023-06-14T11:18:41;5.57;;;4.77;;
52590;SDS011;38483;42.620;25.394;2023-06-14T11:21:09;4.80;;;4.23;;
52590;SDS011;38483;42.620;25.394;2023-06-14T11:23:36;4.47;;;3.90;;
52590;SDS011;38483;42.620;25.394;2023-06-14T11:26:04;4.43;;;4.03;;
52590;SDS011;38483;42.620;25.394;2023-06-14T11:28:49;4.80;;;3.93;;
52590;SDS011;38483;42.620;25.394;2023-06-14T11:31:22;4.40;;;3.87;;
52590;SDS011;38483;42.620;25.394;2023-06-14T11:33:49;4.77;;;4.30;;
52590;SDS011;38483;42.620;25.394;2023-06-14T11:36:17;4.37;;;3.97;;
52590;SDS011;38483;42.620;25.394;2023-06-14T11:38:44;4.50;;;4.10;;
52590;SDS011;38483;42.620;25.394;2023-06-14T11:41:11;5.50;;;4.70;;
52590;SDS011;38483;42.620;25.394;2023-06-14T11:43:39;5.50;;;5.00;;
52590;SDS011;38483;42.620;25.394;2023-06-14T11:46:13;5.30;;;4.53;;
52590;SDS011;38483;42.620;25.394;2023-06-14T11:48:42;5.63;;;5.03;;
52590;SDS011;38483;42.620;25.394;2023-06-14T11:51:09;5.60;;;5.10;;
52590;SDS011;38483;42.620;25.394;2023-06-14T11:53:37;5.13;;;4.63;;
52590;SDS011;38483;42.620;25.394;2023-06-14T11:56:05;5.47;;;4.80;;
52590;SDS011;38483;42.620;25.394;2023-06-14T11:58:32;5.73;;;4.97;;
52590;SDS011;38483;42.620;25.394;2023-06-14T12:01:00;6.27;;;5.40;;
52590;SDS011;38483;42.620;25.394;2023-06-14T12:03:28;7.17;;;4.83;;
52590;SDS011;38483;42.620;25.394;2023-06-14T12:06:29;4.70;;;4.27;;
52590;SDS011;38483;42.620;25.394;2023-06-14T12:09:00;4.90;;;4.40;;
52590;SDS011;38483;42.620;25.394;2023-06-14T12:11:31;4.47;;;4.07;;
52590;SDS011;38483;42.620;25.394;2023-06-14T12:14:03;6.90;;;5.17;;
52590;SDS011;38483;42.620;25.394;2023-06-14T12:16:35;4.40;;;4.00;;
52590;SDS011;38483;42.620;25.394;2023-06-14T12:21:42;5.07;;;4.47;;
52590;SDS011;38483;42.620;25.394;2023-06-14T12:24:14;5.20;;;4.67;;
52590;SDS011;38483;42.620;25.394;2023-06-14T12:26:41;5.50;;;4.53;;
52590;SDS011;38483;42.620;25.394;2023-06-14T12:29:09;8.60;;;6.17;;
52590;SDS011;38483;42.620;25.394;2023-06-14T12:31:37;4.57;;;4.13;;
52590;SDS011;38483;42.620;25.394;2023-06-14T12:34:04;10.57;;;4.57;;
52590;SDS011;38483;42.620;25.394;2023-06-14T12:36:31;4.87;;;4.23;;
52590;SDS011;38483;42.620;25.394;2023-06-14T12:38:58;4.60;;;4.20;;
52590;SDS011;38483;42.620;25.394;2023-06-14T12:41:26;4.00;;;3.60;;
52590;SDS011;38483;42.620;25.394;2023-06-14T12:43:53;4.23;;;3.83;;
52590;SDS011;38483;42.620;25.394;2023-06-14T12:46:21;4.37;;;3.80;;
52590;SDS011;38483;42.620;25.394;2023-06-14T12:48:48;5.93;;;3.80;;
52590;SDS011;38483;42.620;25.394;2023-06-14T12:51:16;6.93;;;4.50;;
52590;SDS011;38483;42.620;25.394;2023-06-14T12:53:43;5.60;;;5.10;;
52590;SDS011;38483;42.620;25.394;2023-06-14T12:56:10;14.60;;;5.37;;
52590;SDS011;38483;42.620;25.394;2023-06-14T12:58:37;12.73;;;4.87;;
52590;SDS011;38483;42.620;25.394;2023-06-14T13:01:05;4.90;;;4.30;;
52590;SDS011;38483;42.620;25.394;2023-06-14T13:03:32;6.97;;;5.13;;
52590;SDS011;38483;42.620;25.394;2023-06-14T13:06:00;8.63;;;4.13;;
52590;SDS011;38483;42.620;25.394;2023-06-14T13:08:28;6.60;;;4.10;;
52590;SDS011;38483;42.620;25.394;2023-06-14T13:10:55;6.07;;;3.70;;
52590;SDS011;38483;42.620;25.394;2023-06-14T13:13:23;3.50;;;3.20;;
52590;SDS011;38483;42.620;25.394;2023-06-14T13:15:50;4.50;;;3.70;;
52590;SDS011;38483;42.620;25.394;2023-06-14T13:18:17;5.27;;;3.60;;
52590;SDS011;38483;42.620;25.394;2023-06-14T13:20:45;4.37;;;3.90;;
52590;SDS011;38483;42.620;25.394;2023-06-14T13:23:14;5.33;;;3.70;;
52590;SDS011;38483;42.620;25.394;2023-06-14T13:25:42;4.73;;;3.90;;
52590;SDS011;38483;42.620;25.394;2023-06-14T13:28:10;5.97;;;4.57;;
52590;SDS011;38483;42.620;25.394;2023-06-14T13:30:37;9.20;;;4.80;;
52590;SDS011;38483;42.620;25.394;2023-06-14T13:33:05;5.00;;;4.07;;
52590;SDS011;38483;42.620;25.394;2023-06-14T13:35:32;3.90;;;3.50;;
52590;SDS011;38483;42.620;25.394;2023-06-14T13:37:59;6.60;;;3.90;;
52590;SDS011;38483;42.620;25.394;2023-06-14T13:40:27;4.70;;;4.30;;
52590;SDS011;38483;42.620;25.394;2023-06-14T13:42:54;6.30;;;4.47;;
52590;SDS011;38483;42.620;25.394;2023-06-14T13:45:21;6.37;;;4.43;;
52590;SDS011;38483;42.620;25.394;2023-06-14T13:47:48;4.67;;;4.17;;
52590;SDS011;38483;42.620;25.394;2023-06-14T13:50:16;7.20;;;4.40;;
52590;SDS011;38483;42.620;25.394;2023-06-14T13:52:44;4.93;;;3.90;;
52590;SDS011;38483;42.620;25.394;2023-06-14T13:55:11;4.83;;;3.70;;
52590;SDS011;38483;42.620;25.394;2023-06-14T13:57:38;5.27;;;3.80;;
52590;SDS011;38483;42.620;25.394;2023-06-14T14:00:06;4.33;;;3.33;;
52590;SDS011;38483;42.620;25.394;2023-06-14T14:02:41;5.07;;;3.47;;
52590;SDS011;38483;42.620;25.394;2023-06-14T14:05:09;4.73;;;4.10;;
52590;SDS011;38483;42.620;25.394;2023-06-14T14:07:36;3.97;;;3.60;;
52590;SDS011;38483;42.620;25.394;2023-06-14T14:10:05;6.03;;;4.17;;
52590;SDS011;38483;42.620;25.394;2023-06-14T14:12:33;6.80;;;3.60;;
52590;SDS011;38483;42.620;25.394;2023-06-14T14:15:00;6.87;;;4.67;;
52590;SDS011;38483;42.620;25.394;2023-06-14T14:17:30;7.30;;;4.10;;
52590;SDS011;38483;42.620;25.394;2023-06-14T14:19:57;11.77;;;5.20;;
52590;SDS011;38483;42.620;25.394;2023-06-14T14:22:30;7.40;;;5.40;;
52590;SDS011;38483;42.620;25.394;2023-06-14T14:24:58;10.13;;;5.70;;
52590;SDS011;38483;42.620;25.394;2023-06-14T14:27:25;4.73;;;4.07;;
52590;SDS011;38483;42.620;25.394;2023-06-14T14:29:52;4.23;;;3.70;;
52590;SDS011;38483;42.620;25.394;2023-06-14T14:32:19;7.67;;;3.87;;
52590;SDS011;38483;42.620;25.394;2023-06-14T14:34:46;8.23;;;4.80;;
52590;SDS011;38483;42.620;25.394;2023-06-14T14:37:13;5.40;;;3.80;;
52590;SDS011;38483;42.620;25.394;2023-06-14T14:39:43;4.47;;;4.00;;
52590;SDS011;38483;42.620;25.394;2023-06-14T14:42:11;5.63;;;4.03;;
52590;SDS011;38483;42.620;25.394;2023-06-14T14:44:39;4.00;;;3.67;;
52590;SDS011;38483;42.620;25.394;2023-06-14T14:47:06;5.00;;;3.47;;
52590;SDS011;38483;42.620;25.394;2023-06-14T14:49:34;4.10;;;3.70;;
52590;SDS011;38483;42.620;25.394;2023-06-14T14:52:01;6.83;;;4.13;;
52590;SDS011;38483;42.620;25.394;2023-06-14T14:54:44;5.03;;;4.13;;
52590;SDS011;38483;42.620;25.394;2023-06-14T14:57:11;5.87;;;4.27;;
52590;SDS011;38483;42.620;25.394;2023-06-14T14:59:38;4.50;;;4.00;;
52590;SDS011;38483;42.620;25.394;2023-06-14T15:02:05;4.77;;;4.17;;
52590;SDS011;38483;42.620;25.394;2023-06-14T15:04:32;4.73;;;3.73;;
52590;SDS011;38483;42.620;25.394;2023-06-14T15:07:00;6.67;;;4.20;;
52590;SDS011;38483;42.620;25.394;2023-06-14T15:09:27;5.57;;;4.33;;
52590;SDS011;38483;42.620;25.394;2023-06-14T15:11:54;6.60;;;4.57;;
52590;SDS011;38483;42.620;25.394;2023-06-14T15:14:21;4.97;;;4.10;;
52590;SDS011;38483;42.620;25.394;2023-06-14T15:16:48;5.37;;;3.90;;
52590;SDS011;38483;42.620;25.394;2023-06-14T15:19:17;4.80;;;3.60;;
52590;SDS011;38483;42.620;25.394;2023-06-14T15:21:44;4.53;;;3.30;;
52590;SDS011;38483;42.620;25.394;2023-06-14T15:24:11;6.97;;;3.63;;
52590;SDS011;38483;42.620;25.394;2023-06-14T15:26:39;4.23;;;3.30;;
52590;SDS011;38483;42.620;25.394;2023-06-14T15:29:06;4.37;;;3.23;;
52590;SDS011;38483;42.620;25.394;2023-06-14T15:31:33;5.67;;;4.13;;
52590;SDS011;38483;42.620;25.394;2023-06-14T15:34:01;3.90;;;3.17;;
52590;SDS011;38483;42.620;25.394;2023-06-14T15:36:28;5.40;;;3.10;;
52590;SDS011;38483;42.620;25.394;2023-06-14T15:38:55;8.23;;;3.67;;
52590;SDS011;38483;42.620;25.394;2023-06-14T15:41:22;4.23;;;3.30;;
52590;SDS011;38483;42.620;25.394;2023-06-14T15:43:49;3.57;;;3.10;;
52590;SDS011;38483;42.620;25.394;2023-06-14T15:46:16;3.10;;;2.83;;
52590;SDS011;38483;42.620;25.394;2023-06-14T15:48:43;3.50;;;3.20;;
52590;SDS011;38483;42.620;25.394;2023-06-14T15:51:11;4.57;;;3.00;;
52590;SDS011;38483;42.620;25.394;2023-06-14T15:53:38;4.73;;;3.27;;
52590;SDS011;38483;42.620;25.394;2023-06-14T15:56:05;4.20;;;3.80;;
52590;SDS011;38483;42.620;25.394;2023-06-14T15:58:32;3.77;;;3.17;;
52590;SDS011;38483;42.620;25.394;2023-06-14T16:01:00;5.63;;;3.07;;
52590;SDS011;38483;42.620;25.394;2023-06-14T16:03:27;4.37;;;3.13;;
52590;SDS011;38483;42.620;25.394;2023-06-14T16:05:54;3.90;;;2.80;;
52590;SDS011;38483;42.620;25.394;2023-06-14T16:08:21;4.20;;;2.70;;
52590;SDS011;38483;42.620;25.394;2023-06-14T16:11:06;5.63;;;2.90;;
52590;SDS011;38483;42.620;25.394;2023-06-14T16:13:34;4.23;;;3.43;;
52590;SDS011;38483;42.620;25.394;2023-06-14T16:16:01;5.87;;;3.17;;
52590;SDS011;38483;42.620;25.394;2023-06-14T16:18:28;2.87;;;2.60;;
52590;SDS011;38483;42.620;25.394;2023-06-14T16:20:55;10.87;;;3.20;;
52590;SDS011;38483;42.620;25.394;2023-06-14T16:23:23;3.30;;;3.00;;
52590;SDS011;38483;42.620;25.394;2023-06-14T16:25:50;4.33;;;3.20;;
52590;SDS011;38483;42.620;25.394;2023-06-14T16:28:18;5.00;;;3.30;;
52590;SDS011;38483;42.620;25.394;2023-06-14T16:30:45;3.10;;;2.80;;
52590;SDS011;38483;42.620;25.394;2023-06-14T16:33:12;4.50;;;3.13;;
52590;SDS011;38483;42.620;25.394;2023-06-14T16:35:39;3.60;;;2.90;;
52590;SDS011;38483;42.620;25.394;2023-06-14T16:38:08;5.87;;;3.37;;
52590;SDS011;38483;42.620;25.394;2023-06-14T16:40:38;8.07;;;4.27;;
52590;SDS011;38483;42.620;25.394;2023-06-14T16:43:05;4.40;;;3.63;;
52590;SDS011;38483;42.620;25.394;2023-06-14T16:45:32;4.33;;;3.67;;
52590;SDS011;38483;42.620;25.394;2023-06-14T16:48:02;5.07;;;3.70;;
52590;SDS011;38483;42.620;25.394;2023-06-14T16:50:30;5.50;;;3.27;;
52590;SDS011;38483;42.620;25.394;2023-06-14T16:52:57;6.03;;;3.90;;
52590;SDS011;38483;42.620;25.394;2023-06-14T16:55:24;3.20;;;2.90;;
52590;SDS011;38483;42.620;25.394;2023-06-14T16:57:51;6.83;;;4.63;;
52590;SDS011;38483;42.620;25.394;2023-06-14T17:00:19;8.10;;;4.70;;
52590;SDS011;38483;42.620;25.394;2023-06-14T17:03:40;7.20;;;4.23;;
52590;SDS011;38483;42.620;25.394;2023-06-14T17:07:01;11.40;;;5.20;;
52590;SDS011;38483;42.620;25.394;2023-06-14T17:10:21;5.50;;;4.03;;